sensor_id;sensor_type;location;lat;lon;timestamp;pressure;altitude;pressure_sealevel;temperature;humidity
43621;BME280;29213;50.770;7.298;2023-06-22T00:01:50;100898.50;;;18.87;59.84
43621;BME280;29213;50.770;7.298;2023-06-22T00:04:15;100956.75;;;19.15;59.53
43621;BME280;29213;50.770;7.298;2023-06-22T00:06:41;100949.69;;;19.14;59.60
43621;BME280;29213;50.770;7.298;2023-06-22T00:09:06;101011.06;;;19.59;59.80
43621;BME280;29213;50.770;7.298;2023-06-22T00:11:33;100957.75;;;19.28;59.80
43621;BME280;29213;50.770;7.298;2023-06-22T00:14:01;100971.03;;;19.29;59.69
43621;BME280;29213;50.770;7.298;2023-06-22T00:16:27;100866.63;;;18.57;59.78
43621;BME280;29213;50.770;7.298;2023-06-22T00:18:52;100973.13;;;19.20;59.61
43621;BME280;29213;50.770;7.298;2023-06-22T00:21:18;101007.19;;;19.35;59.77
43621;BME280;29213;50.770;7.298;2023-06-22T00:23:46;100967.56;;;19.08;59.75
43621;BME280;29213;50.770;7.298;2023-06-22T00:26:12;100986.44;;;19.22;59.91
43621;BME280;29213;50.770;7.298;2023-06-22T00:28:38;100968.19;;;19.11;59.84
43621;BME280;29213;50.770;7.298;2023-06-22T00:31:03;101028.75;;;19.48;59.81
43621;BME280;29213;50.770;7.298;2023-06-22T00:33:29;101028.13;;;19.46;59.81
43621;BME280;29213;50.770;7.298;2023-06-22T00:35:54;100961.34;;;19.08;59.98
43621;BME280;29213;50.770;7.298;2023-06-22T00:38:19;100951.59;;;19.00;60.05
43621;BME280;29213;50.770;7.298;2023-06-22T00:40:45;101000.97;;;19.28;60.04
43621;BME280;29213;50.770;7.298;2023-06-22T00:43:11;101011.31;;;19.31;60.03
43621;BME280;29213;50.770;7.298;2023-06-22T00:45:38;101030.22;;;19.44;60.29
43621;BME280;29213;50.770;7.298;2023-06-22T00:48:04;101006.56;;;19.26;60.07
43621;BME280;29213;50.770;7.298;2023-06-22T00:50:32;101029.59;;;19.42;60.08
43621;BME280;29213;50.770;7.298;2023-06-22T00:53:02;100993.50;;;19.16;60.12
43621;BME280;29213;50.770;7.298;2023-06-22T00:55:34;101034.19;;;19.42;60.04
43621;BME280;29213;50.770;7.298;2023-06-22T00:58:03;100921.56;;;18.76;60.26
43621;BME280;29213;50.770;7.298;2023-06-22T01:00:31;100948.50;;;18.90;59.95
43621;BME280;29213;50.770;7.298;2023-06-22T01:02:58;101026.50;;;19.39;60.24
43621;BME280;29213;50.770;7.298;2023-06-22T01:05:23;100957.44;;;18.90;60.34
43621;BME280;29213;50.770;7.298;2023-06-22T01:11:04;101009.47;;;19.25;60.41
43621;BME280;29213;50.770;7.298;2023-06-22T01:16:29;101026.28;;;19.33;60.51
43621;BME280;29213;50.770;7.298;2023-06-22T01:18:57;100951.03;;;18.85;60.50
43621;BME280;29213;50.770;7.298;2023-06-22T01:21:25;100930.69;;;18.75;60.76
43621;BME280;29213;50.770;7.298;2023-06-22T01:29:04;101010.91;;;19.27;61.19
43621;BME280;29213;50.770;7.298;2023-06-22T01:31:29;100931.72;;;18.81;60.89
43621;BME280;29213;50.770;7.298;2023-06-22T01:33:59;100980.88;;;19.10;61.17
43621;BME280;29213;50.770;7.298;2023-06-22T01:36:26;100949.16;;;18.85;61.22
43621;BME280;29213;50.770;7.298;2023-06-22T01:38:53;101005.78;;;19.12;61.27
43621;BME280;29213;50.770;7.298;2023-06-22T01:41:25;101005.53;;;19.20;61.29
43621;BME280;29213;50.770;7.298;2023-06-22T01:43:52;100936.31;;;18.80;61.40
43621;BME280;29213;50.770;7.298;2023-06-22T01:46:18;101006.56;;;19.19;61.41
43621;BME280;29213;50.770;7.298;2023-06-22T01:48:46;100957.22;;;18.92;61.56
43621;BME280;29213;50.770;7.298;2023-06-22T01:51:11;100901.88;;;18.62;61.19
43621;BME280;29213;50.770;7.298;2023-06-22T01:53:37;100944.78;;;18.91;61.42
43621;BME280;29213;50.770;7.298;2023-06-22T01:56:03;100969.03;;;19.04;61.44
43621;BME280;29213;50.770;7.298;2023-06-22T01:58:30;100958.88;;;19.00;61.48
43621;BME280;29213;50.770;7.298;2023-06-22T02:01:10;100974.22;;;19.06;61.39
43621;BME280;29213;50.770;7.298;2023-06-22T02:03:41;100911.81;;;18.68;61.57
43621;BME280;29213;50.770;7.298;2023-06-22T02:06:14;100987.47;;;19.14;61.81
43621;BME280;29213;50.770;7.298;2023-06-22T02:08:47;100980.88;;;19.10;61.82
43621;BME280;29213;50.770;7.298;2023-06-22T02:11:15;100946.88;;;18.82;61.86
43621;BME280;29213;50.770;7.298;2023-06-22T02:13:42;100922.00;;;18.66;61.84
43621;BME280;29213;50.770;7.298;2023-06-22T02:16:10;100933.19;;;18.70;62.13
43621;BME280;29213;50.770;7.298;2023-06-22T02:18:36;100968.03;;;18.92;61.93
43621;BME280;29213;50.770;7.298;2023-06-22T02:21:02;100818.38;;;18.01;61.97
43621;BME280;29213;50.770;7.298;2023-06-22T02:23:28;100930.50;;;18.70;61.93
43621;BME280;29213;50.770;7.298;2023-06-22T02:25:53;100987.72;;;19.06;61.90
43621;BME280;29213;50.770;7.298;2023-06-22T02:28:19;100985.03;;;19.06;61.84
43621;BME280;29213;50.770;7.298;2023-06-22T02:30:44;100998.53;;;19.06;61.95
43621;BME280;29213;50.770;7.298;2023-06-22T02:33:10;100991.47;;;19.05;61.75
43621;BME280;29213;50.770;7.298;2023-06-22T02:35:35;100910.78;;;18.49;61.93
43621;BME280;29213;50.770;7.298;2023-06-22T02:38:03;100957.25;;;18.78;61.97
43621;BME280;29213;50.770;7.298;2023-06-22T02:40:29;100994.97;;;19.05;62.02
43621;BME280;29213;50.770;7.298;2023-06-22T02:42:55;100960.97;;;18.91;62.01
43621;BME280;29213;50.770;7.298;2023-06-22T02:45:23;100980.66;;;19.05;61.97
43621;BME280;29213;50.770;7.298;2023-06-22T02:47:48;100959.50;;;18.95;62.06
43621;BME280;29213;50.770;7.298;2023-06-22T02:50:14;100919.72;;;18.70;62.07
43621;BME280;29213;50.770;7.298;2023-06-22T02:52:39;100902.53;;;18.58;62.13
43621;BME280;29213;50.770;7.298;2023-06-22T02:55:05;100925.91;;;18.77;62.32
43621;BME280;29213;50.770;7.298;2023-06-22T02:57:32;100959.28;;;19.03;62.30
43621;BME280;29213;50.770;7.298;2023-06-22T02:59:58;100941.47;;;18.89;62.29
43621;BME280;29213;50.770;7.298;2023-06-22T03:02:23;100864.53;;;18.39;62.50
43621;BME280;29213;50.770;7.298;2023-06-22T03:04:48;100916.56;;;18.73;62.23
43621;BME280;29213;50.770;7.298;2023-06-22T03:07:15;100956.38;;;18.98;62.43
43621;BME280;29213;50.770;7.298;2023-06-22T03:09:40;100950.38;;;18.96;62.45
43621;BME280;29213;50.770;7.298;2023-06-22T03:12:08;100960.13;;;18.97;62.42
43621;BME280;29213;50.770;7.298;2023-06-22T03:14:34;100920.75;;;18.69;62.47
43621;BME280;29213;50.770;7.298;2023-06-22T03:16:59;100850.88;;;18.27;62.24
43621;BME280;29213;50.770;7.298;2023-06-22T03:19:29;100956.78;;;18.95;62.49
43621;BME280;29213;50.770;7.298;2023-06-22T03:21:57;100962.84;;;18.97;62.50
43621;BME280;29213;50.770;7.298;2023-06-22T03:24:22;100905.81;;;18.60;62.64
43621;BME280;29213;50.770;7.298;2023-06-22T03:26:48;100905.81;;;18.60;62.60
43621;BME280;29213;50.770;7.298;2023-06-22T03:29:13;100908.72;;;18.65;62.75
43621;BME280;29213;50.770;7.298;2023-06-22T03:31:39;100868.91;;;18.40;62.72
43621;BME280;29213;50.770;7.298;2023-06-22T03:34:04;100954.34;;;18.93;62.66
43621;BME280;29213;50.770;7.298;2023-06-22T03:36:30;100876.78;;;18.41;62.99
43621;BME280;29213;50.770;7.298;2023-06-22T03:38:55;100869.13;;;18.38;62.89
43621;BME280;29213;50.770;7.298;2023-06-22T03:41:20;100959.72;;;18.93;62.97
43621;BME280;29213;50.770;7.298;2023-06-22T03:43:46;100925.91;;;18.77;62.98
43621;BME280;29213;50.770;7.298;2023-06-22T03:46:11;100931.50;;;18.82;63.02
43621;BME280;29213;50.770;7.298;2023-06-22T03:48:37;100908.72;;;18.72;63.22
43621;BME280;29213;50.770;7.298;2023-06-22T03:51:03;100836.56;;;18.20;63.17
43621;BME280;29213;50.770;7.298;2023-06-22T03:53:29;100897.31;;;18.63;63.56
43621;BME280;29213;50.770;7.298;2023-06-22T03:55:55;100890.69;;;18.59;63.54
43621;BME280;29213;50.770;7.298;2023-06-22T03:58:21;100884.44;;;18.58;63.68
43621;BME280;29213;50.770;7.298;2023-06-22T04:00:47;100952.03;;;18.97;63.71
43621;BME280;29213;50.770;7.298;2023-06-22T04:03:14;100930.06;;;18.87;63.87
43621;BME280;29213;50.770;7.298;2023-06-22T04:05:40;100954.72;;;18.97;64.11
43621;BME280;29213;50.770;7.298;2023-06-22T04:08:06;100947.44;;;18.98;64.06
43621;BME280;29213;50.770;7.298;2023-06-22T04:10:32;100764.06;;;17.84;64.47
43621;BME280;29213;50.770;7.298;2023-06-22T04:12:58;100897.72;;;18.66;64.47
43621;BME280;29213;50.770;7.298;2023-06-22T04:15:23;100703.97;;;17.43;64.06
43621;BME280;29213;50.770;7.298;2023-06-22T04:17:48;100942.28;;;18.96;64.46
43621;BME280;29213;50.770;7.298;2023-06-22T04:20:14;100922.78;;;18.87;64.47
43621;BME280;29213;50.770;7.298;2023-06-22T04:22:39;100900.84;;;18.70;64.77
43621;BME280;29213;50.770;7.298;2023-06-22T04:25:05;100921.34;;;18.85;64.80
43621;BME280;29213;50.770;7.298;2023-06-22T04:27:32;100853.56;;;18.47;64.91
43621;BME280;29213;50.770;7.298;2023-06-22T04:30:03;100883.59;;;18.64;65.03
43621;BME280;29213;50.770;7.298;2023-06-22T04:32:28;100860.81;;;18.53;65.87
43621;BME280;29213;50.770;7.298;2023-06-22T04:34:54;100928.81;;;18.82;66.14
43621;BME280;29213;50.770;7.298;2023-06-22T04:37:19;100929.25;;;18.79;66.44
43621;BME280;29213;50.770;7.298;2023-06-22T04:39:48;100872.63;;;18.39;66.67
43621;BME280;29213;50.770;7.298;2023-06-22T04:42:14;100827.03;;;18.17;66.48
43621;BME280;29213;50.770;7.298;2023-06-22T04:44:40;100889.84;;;18.45;66.86
43621;BME280;29213;50.770;7.298;2023-06-22T04:47:07;100931.50;;;18.76;66.81
43621;BME280;29213;50.770;7.298;2023-06-22T04:49:34;100857.31;;;18.26;66.73
43621;BME280;29213;50.770;7.298;2023-06-22T04:52:06;100912.47;;;18.64;66.87
43621;BME280;29213;50.770;7.298;2023-06-22T04:54:33;100918.25;;;18.61;66.67
43621;BME280;29213;50.770;7.298;2023-06-22T04:57:03;100933.19;;;18.77;66.48
43621;BME280;29213;50.770;7.298;2023-06-22T04:59:30;100880.09;;;18.43;66.39
43621;BME280;29213;50.770;7.298;2023-06-22T05:01:57;100908.91;;;18.70;66.63
43621;BME280;29213;50.770;7.298;2023-06-22T05:04:23;100916.56;;;18.80;66.63
43621;BME280;29213;50.770;7.298;2023-06-22T05:06:50;100901.03;;;18.75;66.65
43621;BME280;29213;50.770;7.298;2023-06-22T05:09:16;100861.19;;;18.50;66.47
43621;BME280;29213;50.770;7.298;2023-06-22T05:11:42;100920.28;;;18.92;66.49
43621;BME280;29213;50.770;7.298;2023-06-22T05:14:08;100908.22;;;18.95;66.69
43621;BME280;29213;50.770;7.298;2023-06-22T05:16:33;100851.47;;;18.63;66.48
43621;BME280;29213;50.770;7.298;2023-06-22T05:18:59;100913.41;;;19.03;66.63
43621;BME280;29213;50.770;7.298;2023-06-22T05:21:26;100916.72;;;19.05;66.66
43621;BME280;29213;50.770;7.298;2023-06-22T05:23:53;100863.91;;;18.71;67.04
43621;BME280;29213;50.770;7.298;2023-06-22T05:26:19;100868.03;;;18.73;67.10
43621;BME280;29213;50.770;7.298;2023-06-22T05:28:45;100831.75;;;18.55;67.02
43621;BME280;29213;50.770;7.298;2023-06-22T05:31:15;100908.59;;;19.05;66.99
43621;BME280;29213;50.770;7.298;2023-06-22T05:33:44;100843.19;;;18.58;67.72
43621;BME280;29213;50.770;7.298;2023-06-22T05:36:09;100891.69;;;18.85;67.78
43621;BME280;29213;50.770;7.298;2023-06-22T05:38:36;100838.63;;;18.51;67.97
43621;BME280;29213;50.770;7.298;2023-06-22T05:41:01;100864.31;;;18.67;67.14
43621;BME280;29213;50.770;7.298;2023-06-22T05:43:26;100878.41;;;18.76;67.57
43621;BME280;29213;50.770;7.298;2023-06-22T05:45:52;100824.09;;;18.39;67.28
43621;BME280;29213;50.770;7.298;2023-06-22T05:48:17;100911.56;;;18.97;67.46
43621;BME280;29213;50.770;7.298;2023-06-22T05:50:43;100784.72;;;18.31;67.56
43621;BME280;29213;50.770;7.298;2023-06-22T05:53:08;100863.84;;;18.84;67.32
43621;BME280;29213;50.770;7.298;2023-06-22T05:55:34;100843.13;;;18.71;67.23
43621;BME280;29213;50.770;7.298;2023-06-22T05:57:59;100881.25;;;18.95;67.03
43621;BME280;29213;50.770;7.298;2023-06-22T06:00:24;100834.38;;;18.82;67.05
43621;BME280;29213;50.770;7.298;2023-06-22T06:02:50;100874.94;;;19.15;66.46
43621;BME280;29213;50.770;7.298;2023-06-22T06:05:16;100851.31;;;19.03;66.15
43621;BME280;29213;50.770;7.298;2023-06-22T06:07:42;100904.78;;;19.33;66.48
43621;BME280;29213;50.770;7.298;2023-06-22T06:10:08;100848.84;;;19.02;66.42
43621;BME280;29213;50.770;7.298;2023-06-22T06:12:33;100912.66;;;19.42;66.31
43621;BME280;29213;50.770;7.298;2023-06-22T06:14:59;100869.34;;;19.09;65.75
43621;BME280;29213;50.770;7.298;2023-06-22T06:17:24;100922.81;;;19.46;65.31
43621;BME280;29213;50.770;7.298;2023-06-22T06:19:49;100890.66;;;19.38;65.27
43621;BME280;29213;50.770;7.298;2023-06-22T06:22:15;100916.94;;;19.56;65.00
43621;BME280;29213;50.770;7.298;2023-06-22T06:24:40;100910.50;;;19.57;64.10
43621;BME280;29213;50.770;7.298;2023-06-22T06:27:06;100906.38;;;19.55;64.25
43621;BME280;29213;50.770;7.298;2023-06-22T06:29:31;100863.47;;;19.26;63.01
43621;BME280;29213;50.770;7.298;2023-06-22T06:31:57;100878.16;;;19.44;63.15
43621;BME280;29213;50.770;7.298;2023-06-22T06:34:22;100893.97;;;19.33;62.59
43621;BME280;29213;50.770;7.298;2023-06-22T06:36:48;100940.09;;;19.78;62.92
43621;BME280;29213;50.770;7.298;2023-06-22T06:39:13;100946.88;;;19.87;62.58
43621;BME280;29213;50.770;7.298;2023-06-22T06:41:39;100886.81;;;19.53;62.25
43621;BME280;29213;50.770;7.298;2023-06-22T06:44:04;100953.88;;;20.01;62.59
43621;BME280;29213;50.770;7.298;2023-06-22T06:46:30;100881.34;;;19.66;61.54
43621;BME280;29213;50.770;7.298;2023-06-22T06:48:55;100922.69;;;19.99;60.64
43621;BME280;29213;50.770;7.298;2023-06-22T06:51:21;100947.97;;;20.18;61.16
43621;BME280;29213;50.770;7.298;2023-06-22T06:53:46;100908.50;;;20.10;61.53
43621;BME280;29213;50.770;7.298;2023-06-22T06:56:12;100865.97;;;19.92;61.28
43621;BME280;29213;50.770;7.298;2023-06-22T06:58:40;100739.47;;;19.31;60.90
43621;BME280;29213;50.770;7.298;2023-06-22T07:01:06;100873.47;;;20.22;61.10
43621;BME280;29213;50.770;7.298;2023-06-22T07:03:31;100909.41;;;20.48;60.91
43621;BME280;29213;50.770;7.298;2023-06-22T07:05:58;100830.34;;;20.02;60.79
43621;BME280;29213;50.770;7.298;2023-06-22T07:08:24;100850.31;;;20.26;61.39
43621;BME280;29213;50.770;7.298;2023-06-22T07:10:49;100892.91;;;20.75;61.09
43621;BME280;29213;50.770;7.298;2023-06-22T07:13:14;100838.28;;;20.48;60.61
43621;BME280;29213;50.770;7.298;2023-06-22T07:15:40;100838.72;;;20.45;60.74
43621;BME280;29213;50.770;7.298;2023-06-22T07:18:05;100822.53;;;20.38;61.02
43621;BME280;29213;50.770;7.298;2023-06-22T07:20:31;100837.38;;;20.54;60.14
43621;BME280;29213;50.770;7.298;2023-06-22T07:22:56;100870.41;;;20.75;60.09
43621;BME280;29213;50.770;7.298;2023-06-22T07:25:23;100851.06;;;20.59;60.14
43621;BME280;29213;50.770;7.298;2023-06-22T07:28:07;100855.25;;;20.74;60.29
43621;BME280;29213;50.770;7.298;2023-06-22T07:30:33;100889.34;;;21.00;59.85
43621;BME280;29213;50.770;7.298;2023-06-22T07:32:59;100882.25;;;20.99;60.28
43621;BME280;29213;50.770;7.298;2023-06-22T07:35:32;100874.63;;;21.08;60.23
43621;BME280;29213;50.770;7.298;2023-06-22T07:37:57;100840.47;;;20.95;60.29
43621;BME280;29213;50.770;7.298;2023-06-22T07:40:23;100877.91;;;21.29;60.20
43621;BME280;29213;50.770;7.298;2023-06-22T07:42:48;100750.03;;;20.47;59.80
43621;BME280;29213;50.770;7.298;2023-06-22T07:45:17;100865.81;;;21.31;59.78
43621;BME280;29213;50.770;7.298;2023-06-22T07:47:42;100883.22;;;21.54;59.56
43621;BME280;29213;50.770;7.298;2023-06-22T07:50:08;100841.47;;;21.43;59.85
43621;BME280;29213;50.770;7.298;2023-06-22T07:52:34;100873.00;;;21.68;59.57
43621;BME280;29213;50.770;7.298;2023-06-22T07:55:00;100864.06;;;21.68;59.26
43621;BME280;29213;50.770;7.298;2023-06-22T07:57:26;100858.41;;;21.69;59.08
43621;BME280;29213;50.770;7.298;2023-06-22T07:59:59;100823.63;;;21.54;58.87
43621;BME280;29213;50.770;7.298;2023-06-22T08:02:25;100857.53;;;21.99;58.84
43621;BME280;29213;50.770;7.298;2023-06-22T08:04:50;100826.50;;;21.95;58.22
43621;BME280;29213;50.770;7.298;2023-06-22T08:07:16;100827.44;;;22.13;58.57
43621;BME280;29213;50.770;7.298;2023-06-22T08:09:47;100852.25;;;22.40;58.27
43621;BME280;29213;50.770;7.298;2023-06-22T08:12:13;100833.84;;;22.31;57.91
43621;BME280;29213;50.770;7.298;2023-06-22T08:14:41;100744.00;;;21.91;57.15
43621;BME280;29213;50.770;7.298;2023-06-22T08:17:07;100833.22;;;22.64;57.47
43621;BME280;29213;50.770;7.298;2023-06-22T08:19:32;100768.22;;;22.46;57.46
43621;BME280;29213;50.770;7.298;2023-06-22T08:21:58;100720.41;;;22.27;57.16
43621;BME280;29213;50.770;7.298;2023-06-22T08:24:23;100830.31;;;22.95;56.83
43621;BME280;29213;50.770;7.298;2023-06-22T08:26:51;100802.94;;;22.85;56.25
43621;BME280;29213;50.770;7.298;2023-06-22T08:29:17;100800.31;;;22.90;56.70
43621;BME280;29213;50.770;7.298;2023-06-22T08:31:42;100735.72;;;22.63;56.11
43621;BME280;29213;50.770;7.298;2023-06-22T08:34:07;100675.84;;;22.52;56.89
43621;BME280;29213;50.770;7.298;2023-06-22T08:36:33;100769.38;;;23.20;56.13
43621;BME280;29213;50.770;7.298;2023-06-22T08:39:03;100799.56;;;23.53;55.35
43621;BME280;29213;50.770;7.298;2023-06-22T08:41:29;100756.22;;;23.46;55.80
43621;BME280;29213;50.770;7.298;2023-06-22T08:43:54;100751.56;;;23.58;54.95
43621;BME280;29213;50.770;7.298;2023-06-22T08:46:21;100784.66;;;23.90;54.57
43621;BME280;29213;50.770;7.298;2023-06-22T08:48:48;100764.47;;;23.85;54.72
43621;BME280;29213;50.770;7.298;2023-06-22T08:51:14;100789.72;;;24.03;54.18
43621;BME280;29213;50.770;7.298;2023-06-22T08:53:39;100707.47;;;23.56;53.54
43621;BME280;29213;50.770;7.298;2023-06-22T08:56:05;100741.47;;;23.76;53.55
43621;BME280;29213;50.770;7.298;2023-06-22T08:58:30;100696.59;;;23.56;53.73
43621;BME280;29213;50.770;7.298;2023-06-22T09:00:55;100725.50;;;23.80;54.23
43621;BME280;29213;50.770;7.298;2023-06-22T09:03:21;100696.72;;;23.61;53.77
43621;BME280;29213;50.770;7.298;2023-06-22T09:05:46;100757.25;;;23.96;54.35
43621;BME280;29213;50.770;7.298;2023-06-22T09:08:12;100689.44;;;23.67;53.52
43621;BME280;29213;50.770;7.298;2023-06-22T09:10:37;100710.97;;;23.91;53.26
43621;BME280;29213;50.770;7.298;2023-06-22T09:13:02;100734.97;;;24.17;53.19
43621;BME280;29213;50.770;7.298;2023-06-22T09:15:28;100704.19;;;23.94;52.30
43621;BME280;29213;50.770;7.298;2023-06-22T09:17:53;100694.59;;;23.86;52.40
43621;BME280;29213;50.770;7.298;2023-06-22T09:20:19;100703.16;;;23.95;52.55
43621;BME280;29213;50.770;7.298;2023-06-22T09:22:45;100730.59;;;24.15;52.29
43621;BME280;29213;50.770;7.298;2023-06-22T09:25:10;100700.94;;;24.14;52.19
43621;BME280;29213;50.770;7.298;2023-06-22T09:27:36;100678.91;;;24.15;52.00
43621;BME280;29213;50.770;7.298;2023-06-22T09:30:01;100670.00;;;24.20;51.76
43621;BME280;29213;50.770;7.298;2023-06-22T09:32:28;100664.66;;;24.25;51.92
43621;BME280;29213;50.770;7.298;2023-06-22T09:34:53;100671.31;;;24.40;51.49
43621;BME280;29213;50.770;7.298;2023-06-22T09:37:19;100687.03;;;24.60;51.79
43621;BME280;29213;50.770;7.298;2023-06-22T09:39:44;100642.38;;;24.56;51.47
43621;BME280;29213;50.770;7.298;2023-06-22T09:42:10;100657.28;;;24.81;51.10
43621;BME280;29213;50.770;7.298;2023-06-22T09:44:35;100677.97;;;25.04;50.67
43621;BME280;29213;50.770;7.298;2023-06-22T09:47:01;100658.84;;;24.99;50.50
43621;BME280;29213;50.770;7.298;2023-06-22T09:49:27;100671.19;;;25.07;50.30
43621;BME280;29213;50.770;7.298;2023-06-22T09:51:52;100630.19;;;24.64;50.91
43621;BME280;29213;50.770;7.298;2023-06-22T09:54:18;100660.44;;;24.67;50.28
43621;BME280;29213;50.770;7.298;2023-06-22T09:56:43;100668.94;;;24.71;50.17
43621;BME280;29213;50.770;7.298;2023-06-22T09:59:09;100661.94;;;24.53;50.34
43621;BME280;29213;50.770;7.298;2023-06-22T10:01:34;100668.41;;;24.47;50.68
43621;BME280;29213;50.770;7.298;2023-06-22T10:03:59;100656.78;;;24.29;50.97
43621;BME280;29213;50.770;7.298;2023-06-22T10:06:25;100684.69;;;24.41;51.27
43621;BME280;29213;50.770;7.298;2023-06-22T10:08:51;100675.31;;;24.32;51.38
43621;BME280;29213;50.770;7.298;2023-06-22T10:11:17;100690.97;;;24.42;51.84
43621;BME280;29213;50.770;7.298;2023-06-22T10:13:42;100690.19;;;24.47;52.20
43621;BME280;29213;50.770;7.298;2023-06-22T10:16:08;100654.41;;;24.15;51.94
43621;BME280;29213;50.770;7.298;2023-06-22T10:18:33;100662.19;;;24.24;51.94
43621;BME280;29213;50.770;7.298;2023-06-22T10:20:59;100686.00;;;24.39;51.94
43621;BME280;29213;50.770;7.298;2023-06-22T10:23:25;100695.06;;;24.45;52.13
43621;BME280;29213;50.770;7.298;2023-06-22T10:25:50;100697.56;;;24.51;52.69
43621;BME280;29213;50.770;7.298;2023-06-22T10:28:16;100601.38;;;23.91;53.28
43621;BME280;29213;50.770;7.298;2023-06-22T10:30:41;100727.31;;;24.58;53.35
43621;BME280;29213;50.770;7.298;2023-06-22T10:33:08;100704.16;;;24.33;53.50
43621;BME280;29213;50.770;7.298;2023-06-22T10:35:33;100744.88;;;24.45;54.28
43621;BME280;29213;50.770;7.298;2023-06-22T10:37:59;100771.72;;;24.59;54.65
43621;BME280;29213;50.770;7.298;2023-06-22T10:40:25;100765.06;;;24.49;54.23
43621;BME280;29213;50.770;7.298;2023-06-22T10:42:50;100768.09;;;24.53;54.79
43621;BME280;29213;50.770;7.298;2023-06-22T10:45:16;100746.72;;;24.39;55.33
43621;BME280;29213;50.770;7.298;2023-06-22T10:47:41;100759.81;;;24.43;55.17
43621;BME280;29213;50.770;7.298;2023-06-22T10:50:10;100745.75;;;24.28;55.92
43621;BME280;29213;50.770;7.298;2023-06-22T10:52:36;100773.88;;;24.34;55.98
43621;BME280;29213;50.770;7.298;2023-06-22T10:55:01;100746.19;;;24.20;56.67
43621;BME280;29213;50.770;7.298;2023-06-22T10:57:27;100691.53;;;23.82;57.06
43621;BME280;29213;50.770;7.298;2023-06-22T10:59:52;100730.00;;;23.91;58.84
43621;BME280;29213;50.770;7.298;2023-06-22T11:02:17;100758.94;;;23.97;58.28
43621;BME280;29213;50.770;7.298;2023-06-22T11:04:43;100779.28;;;23.95;59.19
43621;BME280;29213;50.770;7.298;2023-06-22T11:07:09;100751.06;;;23.61;60.44
43621;BME280;29213;50.770;7.298;2023-06-22T11:09:34;100795.97;;;23.64;62.64
43621;BME280;29213;50.770;7.298;2023-06-22T11:12:00;100804.06;;;23.47;63.57
43621;BME280;29213;50.770;7.298;2023-06-22T11:14:25;100778.03;;;23.17;63.50
43621;BME280;29213;50.770;7.298;2023-06-22T11:16:51;100795.09;;;23.29;62.18
43621;BME280;29213;50.770;7.298;2023-06-22T11:19:17;100737.63;;;22.91;62.22
43621;BME280;29213;50.770;7.298;2023-06-22T11:21:42;100768.75;;;23.01;62.79
43621;BME280;29213;50.770;7.298;2023-06-22T11:24:08;100808.16;;;23.15;62.22
43621;BME280;29213;50.770;7.298;2023-06-22T11:26:33;100775.47;;;23.10;62.18
43621;BME280;29213;50.770;7.298;2023-06-22T11:28:59;100721.56;;;23.02;61.95
43621;BME280;29213;50.770;7.298;2023-06-22T11:31:24;100681.31;;;22.87;62.03
43621;BME280;29213;50.770;7.298;2023-06-22T11:33:50;100710.34;;;22.98;61.61
43621;BME280;29213;50.770;7.298;2023-06-22T11:36:16;100730.91;;;22.94;61.90
43621;BME280;29213;50.770;7.298;2023-06-22T11:38:42;100732.91;;;22.87;61.75
43621;BME280;29213;50.770;7.298;2023-06-22T11:41:09;100729.16;;;22.88;62.20
43621;BME280;29213;50.770;7.298;2023-06-22T11:43:34;100718.69;;;22.79;62.89
43621;BME280;29213;50.770;7.298;2023-06-22T11:46:02;100735.03;;;22.97;62.18
43621;BME280;29213;50.770;7.298;2023-06-22T11:48:28;100718.09;;;23.06;61.90
43621;BME280;29213;50.770;7.298;2023-06-22T11:50:53;100716.63;;;23.16;62.61
43621;BME280;29213;50.770;7.298;2023-06-22T11:53:20;100692.75;;;23.18;61.65
43621;BME280;29213;50.770;7.298;2023-06-22T11:55:47;100674.91;;;23.22;61.94
43621;BME280;29213;50.770;7.298;2023-06-22T11:58:13;100618.31;;;22.85;61.86
43621;BME280;29213;50.770;7.298;2023-06-22T12:00:38;100658.44;;;23.12;61.58
43621;BME280;29213;50.770;7.298;2023-06-22T12:03:04;100623.75;;;22.85;61.82
43621;BME280;29213;50.770;7.298;2023-06-22T12:05:29;100658.81;;;23.03;62.57
43621;BME280;29213;50.770;7.298;2023-06-22T12:07:55;100651.00;;;23.07;62.81
43621;BME280;29213;50.770;7.298;2023-06-22T12:10:25;100644.19;;;23.04;63.00
43621;BME280;29213;50.770;7.298;2023-06-22T12:12:50;100626.66;;;22.95;63.32
43621;BME280;29213;50.770;7.298;2023-06-22T12:15:16;100603.50;;;22.75;63.06
43621;BME280;29213;50.770;7.298;2023-06-22T12:17:41;100635.50;;;22.73;62.71
43621;BME280;29213;50.770;7.298;2023-06-22T12:20:07;100640.59;;;22.70;62.95
43621;BME280;29213;50.770;7.298;2023-06-22T12:22:33;100629.00;;;22.74;63.42
43621;BME280;29213;50.770;7.298;2023-06-22T12:24:58;100608.44;;;22.78;63.60
43621;BME280;29213;50.770;7.298;2023-06-22T12:27:24;100574.72;;;22.57;63.56
43621;BME280;29213;50.770;7.298;2023-06-22T12:29:50;100592.72;;;22.80;63.68
43621;BME280;29213;50.770;7.298;2023-06-22T12:32:15;100542.97;;;22.58;63.92
43621;BME280;29213;50.770;7.298;2023-06-22T12:34:42;100561.38;;;22.73;63.55
43621;BME280;29213;50.770;7.298;2023-06-22T12:37:07;100581.81;;;22.92;63.64
43621;BME280;29213;50.770;7.298;2023-06-22T12:39:33;100538.03;;;22.72;63.56
43621;BME280;29213;50.770;7.298;2023-06-22T12:41:58;100539.91;;;22.88;62.81
43621;BME280;29213;50.770;7.298;2023-06-22T12:44:23;100519.28;;;22.87;62.58
43621;BME280;29213;50.770;7.298;2023-06-22T12:46:49;100518.22;;;22.71;59.42
43621;BME280;29213;50.770;7.298;2023-06-22T12:49:14;100552.59;;;22.83;59.58
43621;BME280;29213;50.770;7.298;2023-06-22T12:51:40;100550.78;;;22.88;60.89
43621;BME280;29213;50.770;7.298;2023-06-22T12:54:07;100512.28;;;22.74;59.52
43621;BME280;29213;50.770;7.298;2023-06-22T12:56:33;100532.00;;;22.87;59.77